EW8373 Weather Reports


Display with metric or nautical units.
time (UTC)temp
F
wind
direction
speed
MPH
gust
MPH
rain 1hr
in
rain 24hr
in
rain mn
in
humidity
%
barometer
mb
20210614151802 71 78 2.0 3.0 0.00 0.00 0.00 47 1019.8
20210614151302 71 107 2.0 7.0 0.00 0.00 0.00 48 1019.9
20210614150802 70 35 5.0 9.0 0.00 0.00 0.00 47 1019.9
20210614150302 70 322 4.0 7.0 0.00 0.00 0.00 46 1019.8
20210614145801 71 333 6.0 12.0 0.00 0.00 0.00 46 1019.9
20210614145301 71 1 4.0 10.0 0.00 0.00 0.00 46 1020.0
20210614144802 70 286 1.0 3.0 0.00 0.00 0.00 47 1020.1
20210614144302 71 286 2.0 7.0 0.00 0.00 0.00 48 1020.1
20210614143802 71 245 2.0 3.0 0.00 0.00 0.00 47 1020.1
20210614143303 70 19 2.0 3.0 0.00 0.00 0.00 48 1020.2
20210614142802 70 355 3.0 9.0 0.00 0.00 0.00 46 1020.2
20210614142305 70 302 5.0 7.0 0.00 0.00 0.00 46 1020.4
20210614141802 70 257 4.0 8.0 0.00 0.00 0.00 47 1020.4
20210614141302 70 309 5.0 12.0 0.00 0.00 0.00 47 1020.5
20210614140802 70 274 2.0 5.0 0.00 0.00 0.00 47 1020.4
20210614140302 70 264 4.0 8.0 0.00 0.00 0.00 46 1020.5
20210614135802 70 351 3.0 7.0 0.00 0.00 0.00 47 1020.6
20210614135306 70 8 5.0 10.0 0.00 0.00 0.00 47 1020.6
20210614134802 71 0 3.0 10.0 0.00 0.00 0.00 46 1020.7
20210614134302 70 352 3.0 8.0 0.00 0.00 0.00 46 1020.8
20210614133802 70 93 2.0 6.0 0.00 0.00 0.00 47 1020.7
20210614133303 70 93 2.0 5.0 0.00 0.00 0.00 46 1020.8
20210614132803 70 355 4.0 12.0 0.00 0.00 0.00 46 1020.9
20210614132305 70 323 2.0 9.0 0.00 0.00 0.00 47 1021.0
20210614131802 70 0 4.0 12.0 0.00 0.00 0.00 46 1021.0
20210614131304 70 348 9.0 14.0 0.00 0.00 0.00 48 1021.1
20210614130803 70 29 5.0 9.0 0.00 0.00 0.00 47 1021.1
20210614130303 69 245 2.0 7.0 0.00 0.00 0.00 46 1021.2
20210614125803 70 340 3.0 9.0 0.00 0.00 0.00 48 1021.2
20210614125305 70 324 8.0 12.0 0.00 0.00 0.00 46 1021.3
20210614124803 69 285 4.0 13.0 0.00 0.00 0.00 47 1021.4
20210614124303 69 319 6.0 13.0 0.00 0.00 0.00 48 1021.5
20210614123803 69 88 2.0 5.0 0.00 0.00 0.00 49 1021.5
20210614123303 68 78 3.0 6.0 0.00 0.00 0.00 47 1021.5
20210614122803 67 304 2.0 9.0 0.00 0.00 0.00 48 1021.7
20210614122306 68 334 5.0 10.0 0.00 0.00 0.00 48 1021.7
20210614121804 68 337 6.0 12.0 0.00 0.00 0.00 48 1021.7
20210614121303 67 355 3.0 6.0 0.00 0.00 0.00 51 1021.8
20210614120803 68 344 3.0 10.0 0.00 0.00 0.00 49 1021.7
20210614120304 69 60 5.0 12.0 0.00 0.00 0.00 49 1022.0
20210614115804 68 57 4.0 9.0 0.00 0.00 0.00 47 1022.0
20210614115306 69 301 5.0 12.0 0.00 0.00 0.00 46 1022.1
20210614114803 68 341 5.0 9.0 0.00 0.00 0.00 51 1022.1
20210614114304 66 350 3.0 6.0 0.00 0.00 0.00 53 1022.1
20210614113804 67 272 4.0 8.0 0.00 0.00 0.00 50 1022.2
20210614113304 68 0 3.0 9.0 0.00 0.00 0.00 47 1022.2
20210614112804 68 313 6.0 9.0 0.00 0.00 0.00 49 1022.3
20210614112305 69 3 6.0 12.0 0.00 0.00 0.00 50 1022.4
20210614111805 68 314 6.0 10.0 0.00 0.00 0.00 50 1022.4
20210614111304 68 237 6.0 10.0 0.00 0.00 0.00 50 1022.5
20210614110805 67 246 5.0 9.0 0.00 0.00 0.00 51 1022.5
20210614110304 68 305 5.0 8.0 0.00 0.00 0.00 50 1022.7
20210614105803 67 3 2.0 8.0 0.00 0.00 0.00 51 1022.7
20210614105305 67 57 3.0 10.0 0.00 0.00 0.00 48 1022.7
20210614104804 66 328 3.0 9.0 0.00 0.00 0.00 52 1022.8
20210614104304 65 290 3.0 8.0 0.00 0.00 0.00 53 1022.8
20210614103804 67 284 4.0 7.0 0.00 0.00 0.00 50 1022.9
20210614103305 68 319 7.0 12.0 0.00 0.00 0.00 51 1022.8
20210614102750 67 261 1.0 5.0 0.00 0.00 0.00 50 1022.9
20210614102250 68 299 5.0 12.0 0.00 0.00 0.00 47 1022.9
20210614101750 67 338 9.0 14.0 0.00 0.00 0.00 49 1022.9
20210614101250 67 332 3.0 12.0 0.00 0.00 0.00 50 1022.9
20210614100750 66 105 2.0 9.0 0.00 0.00 0.00 49 1022.9
20210614100250 66 339 5.0 12.0 0.00 0.00 0.00 50 1023.0
20210614095750 65 325 5.0 12.0 0.00 0.00 0.00 53 1023.0
20210614095250 65 292 7.0 9.0 0.00 0.00 0.00 51 1023.1
20210614094749 65 281 3.0 10.0 0.00 0.00 0.00 53 1023.1
20210614094251 64 252 6.0 12.0 0.00 0.00 0.00 53 1023.2
20210614093751 63 310 8.0 12.0 0.00 0.00 0.00 54 1023.2
20210614093250 65 317 7.0 12.0 0.00 0.00 0.00 52 1023.2
20210614092750 64 274 6.0 14.0 0.00 0.00 0.00 55 1023.2
20210614092251 63 250 7.0 14.0 0.00 0.00 0.00 58 1023.3
20210614091750 62 237 2.0 10.0 0.00 0.00 0.00 58 1023.3
20210614091250 63 261 6.0 12.0 0.00 0.00 0.00 56 1023.4
20210614090750 65 260 3.0 10.0 0.00 0.00 0.00 54 1023.4
20210614090250 65 246 5.0 12.0 0.00 0.00 0.00 56 1023.5
20210614085750 64 55 1.0 5.0 0.00 0.00 0.00 57 1023.4
20210614085251 62 173 1.0 3.0 0.00 0.00 0.00 61 1023.4
20210614084751 62 184 3.0 6.0 0.00 0.00 0.00 58 1023.4
20210614084251 62 261 3.0 7.0 0.00 0.00 0.00 60 1023.4
20210614083751 64 46 1.0 7.0 0.00 0.00 0.00 58 1023.4
20210614083251 64 309 1.0 12.0 0.00 0.00 0.00 60 1023.5
20210614082752 63 311 6.0 12.0 0.00 0.00 0.00 60 1023.5
20210614082251 63 179 3.0 3.0 0.00 0.00 0.00 58 1023.5
20210614081750 63 303 6.0 10.0 0.00 0.00 0.00 58 1023.6
20210614081252 63 266 6.0 12.0 0.00 0.00 0.00 59 1023.5
20210614080751 62 271 4.0 8.0 0.00 0.00 0.00 60 1023.5
20210614080251 62 347 8.0 12.0 0.00 0.00 0.00 60 1023.6
20210614075752 62 333 3.0 10.0 0.00 0.00 0.00 57 1023.6
20210614075251 62 335 5.0 12.0 0.00 0.00 0.00 60 1023.6
20210614074751 62 265 3.0 7.0 0.00 0.00 0.00 60 1023.6
20210614074252 62 305 2.0 9.0 0.00 0.00 0.00 61 1023.5
20210614073752 62 332 3.0 9.0 0.00 0.00 0.00 63 1023.5
20210614073251 61 280 5.0 8.0 0.00 0.00 0.00 63 1023.4
20210614072752 62 282 5.0 8.0 0.00 0.00 0.00 61 1023.5
20210614072252 62 311 7.0 10.0 0.00 0.00 0.00 62 1023.5
20210614071751 61 247 3.0 8.0 0.00 0.00 0.00 64 1023.6
20210614071252 60 295 4.0 12.0 0.00 0.00 0.00 64 1023.6
20210614070752 61 290 4.0 12.0 0.00 0.00 0.00 63 1023.6
20210614070251 61 284 5.0 9.0 0.00 0.00 0.00 63 1023.6
20210614065752 61 291 4.0 10.0 0.00 0.00 0.00 63 1023.7
20210614065251 61 309 6.0 9.0 0.00 0.00 0.00 67 1023.6
20210614064753 60 317 5.0 9.0 0.00 0.00 0.00 67 1023.7
20210614064253 59 292 5.0 8.0 0.00 0.00 0.00 67 1023.7
20210614063752 60 307 3.0 8.0 0.00 0.00 0.00 68 1023.8
20210614063252 59 307 5.0 10.0 0.00 0.00 0.00 71 1023.9
20210614062752 59 273 4.0 7.0 0.00 0.00 0.00 70 1023.8
20210614062252 58 325 5.0 8.0 0.00 0.00 0.00 71 1023.8
20210614061753 57 279 3.0 7.0 0.00 0.00 0.00 74 1023.8
20210614061253 57 276 5.0 7.0 0.00 0.00 0.00 72 1023.8
20210614060752 57 307 3.0 5.0 0.00 0.00 0.00 76 1023.8
20210614060253 56 307 3.0 7.0 0.00 0.00 0.00 74 1023.9
20210614055752 56 296 4.0 7.0 0.00 0.00 0.00 74 1023.9
20210614055253 56 296 4.0 7.0 0.00 0.00 0.00 76 1023.9
20210614054753 56 309 6.0 9.0 0.00 0.00 0.00 75 1024.0
20210614054254 55 312 3.0 7.0 0.00 0.00 0.00 76 1023.9
20210614053753 55 304 7.0 9.0 0.00 0.00 0.00 76 1023.9
20210614053253 55 299 7.0 9.0 0.00 0.00 0.00 77 1023.9
20210614052753 54 307 5.0 9.0 0.00 0.00 0.00 78 1023.8
20210614052253 54 292 6.0 9.0 0.00 0.00 0.00 77 1023.9
20210614051753 53 309 5.0 8.0 0.00 0.00 0.00 78 1023.9
20210614051252 53 291 6.0 8.0 0.00 0.00 0.00 79 1024.0
20210614050754 53 290 5.0 8.0 0.00 0.00 0.00 80 1023.9
20210614050255 52 304 3.0 9.0 0.00 0.00 0.00 80 1024.0
20210614045754 52 301 6.0 10.0 0.00 0.00 0.00 80 1024.0
20210614045253 53 296 7.0 10.0 0.00 0.00 0.00 81 1024.0
20210614044753 52 303 7.0 10.0 0.00 0.00 0.00 80 1024.1
20210614044254 52 307 6.0 10.0 0.00 0.00 0.00 82 1024.0
20210614043753 52 301 7.0 9.0 0.00 0.00 0.00 83 1023.9
20210614043253 51 310 7.0 10.0 0.00 0.00 0.00 83 1024.0
20210614042753 51 308 6.0 9.0 0.00 0.00 0.00 82 1024.0
20210614042254 51 295 8.0 10.0 0.00 0.00 0.00 83 1023.9
20210614041753 51 307 7.0 9.0 0.00 0.00 0.00 83 1024.1
20210614041254 50 309 5.0 8.0 0.00 0.00 0.00 84 1024.0
20210614040753 50 309 5.0 8.0 0.00 0.00 0.00 84 1024.0
20210614040254 49 297 3.0 10.0 0.00 0.00 0.00 85 1023.9
20210614035754 49 291 5.0 8.0 0.00 0.00 0.00 86 1023.9
20210614035254 48 299 3.0 3.0 0.00 0.00 0.00 87 1023.9
20210614034753 48 299 3.0 5.0 0.00 0.00 0.00 87 1024.0
20210614034255 47 299 4.0 7.0 0.00 0.00 0.00 87 1024.0
20210614033753 47 295 5.0 8.0 0.00 0.00 0.00 89 1023.9
20210614033254 47 287 3.0 5.0 0.00 0.00 0.00 88 1023.9
20210614032754 47 287 2.0 3.0 0.00 0.00 0.00 88 1023.9
20210614032255 48 284 3.0 7.0 0.00 0.00 0.00 88 1023.8
20210614031755 48 302 5.0 8.0 0.00 0.00 0.00 88 1023.8
20210614031255 47 290 4.0 8.0 0.00 0.00 0.00 88 1023.8
20210614030754 47 289 6.0 9.0 0.00 0.00 0.00 88 1023.8
20210614030255 47 282 5.0 8.0 0.00 0.00 0.00 89 1023.8
20210614025754 47 280 4.0 7.0 0.00 0.00 0.00 89 1023.8
20210614025254 47 281 4.0 6.0 0.00 0.00 0.00 89 1023.7
20210614024755 47 292 3.0 3.0 0.00 0.00 0.00 90 1023.7
20210614024254 47 292 2.0 3.0 0.00 0.00 0.00 89 1023.8
20210614023754 47 292 3.0 3.0 0.00 0.00 0.00 89 1023.7
20210614023254 47 292 3.0 3.0 0.00 0.00 0.00 89 1023.7
20210614022756 47 292 3.0 3.0 0.00 0.00 0.00 90 1023.7
20210614022254 47 292 3.0 3.0 0.00 0.00 0.00 90 1023.7
20210614021755 47 292 3.0 5.0 0.00 0.00 0.00 90 1023.7
20210614021255 47 292 3.0 3.0 0.00 0.00 0.00 90 1023.7
20210614020755 47 292 3.0 3.0 0.00 0.00 0.00 90 1023.7
20210614020255 47 292 3.0 3.0 0.00 0.00 0.00 90 1023.7
20210614015755 47 292 3.0 3.0 0.00 0.00 0.00 90 1023.7
20210614015255 47 292 3.0 5.0 0.00 0.00 0.00 90 1023.7
20210614014755 47 292 3.0 3.0 0.00 0.00 0.00 89 1023.7
20210614014255 47 292 3.0 3.0 0.00 0.00 0.00 89 1023.8
20210614013754 47 292 2.0 3.0 0.00 0.00 0.00 89 1023.8
20210614013256 47 292 3.0 5.0 0.00 0.00 0.00 89 1023.9
20210614012755 47 292 3.0 3.0 0.00 0.00 0.00 88 1023.9
20210614012255 47 292 3.0 3.0 0.00 0.00 0.00 88 1023.9
20210614011756 48 292 3.0 3.0 0.00 0.00 0.00 88 1023.9
20210614011256 47 292 3.0 3.0 0.00 0.00 0.00 88 1024.0
20210614010755 47 292 3.0 3.0 0.00 0.00 0.00 88 1024.0
20210614010255 47 292 2.0 3.0 0.00 0.00 0.00 88 1024.1
20210614005755 47 292 2.0 3.0 0.00 0.00 0.00 88 1024.1
20210614005256 48 292 2.0 3.0 0.00 0.00 0.00 87 1024.1
20210614004757 48 292 1.0 3.0 0.00 0.00 0.00 87 1024.1
20210614004256 48 292 2.0 3.0 0.00 0.00 0.00 87 1024.1
20210614003756 48 292 2.0 3.0 0.00 0.00 0.00 86 1024.1
20210614003256 48 292 2.0 3.0 0.00 0.00 0.00 86 1024.2
20210614002756 48 292 2.0 3.0 0.00 0.00 0.00 86 1024.1
20210614002256 48 292 2.0 3.0 0.00 0.00 0.00 86 1024.2
20210614001757 48 292 2.0 3.0 0.00 0.00 0.00 86 1024.2
20210614001256 49 292 2.0 3.0 0.00 0.00 0.00 85 1024.2
20210614000756 49 292 2.0 3.0 0.00 0.00 0.00 85 1024.3
20210614000256 49 292 1.0 3.0 0.00 0.00 0.00 84 1024.3
20210613235756 49 292 1.0 2.0 0.00 0.00 0.00 84 1024.2
20210613235256 50 292 1.0 3.0 0.00 0.00 0.00 83 1024.2
20210613234757 50 292 2.0 3.0 0.00 0.00 0.00 82 1024.2
20210613234257 50 292 1.0 3.0 0.00 0.00 0.00 82 1024.2
20210613233756 50 292 2.0 3.0 0.00 0.00 0.00 81 1024.2
20210613233256 51 292 2.0 3.0 0.00 0.00 0.00 81 1024.2
20210613232756 51 292 2.0 3.0 0.00 0.00 0.00 81 1024.1
20210613232257 51 292 3.0 5.0 0.00 0.00 0.00 81 1024.2
20210613231757 51 292 3.0 5.0 0.00 0.00 0.00 80 1024.2
20210613231257 51 292 3.0 5.0 0.00 0.00 0.00 80 1024.2
20210613230756 51 292 3.0 5.0 0.00 0.00 0.00 80 1024.1
20210613230256 51 292 3.0 3.0 0.00 0.00 0.00 80 1024.1
20210613225756 51 292 2.0 3.0 0.00 0.00 0.00 80 1024.2
20210613225258 51 292 2.0 3.0 0.00 0.00 0.00 79 1024.1
20210613224757 51 292 2.0 3.0 0.00 0.00 0.00 78 1024.0
20210613224256 52 292 2.0 3.0 0.00 0.00 0.00 78 1024.1
20210613223756 52 292 2.0 3.0 0.00 0.00 0.00 78 1024.2
20210613223256 52 292 2.0 3.0 0.00 0.00 0.00 76 1024.1
20210613222757 53 292 3.0 3.0 0.00 0.00 0.00 75 1024.1
20210613222257 53 292 3.0 5.0 0.00 0.00 0.00 77 1024.1
20210613221758 53 292 4.0 5.0 0.00 0.00 0.00 76 1024.1
20210613221257 53 292 2.0 3.0 0.00 0.00 0.00 75 1024.1
20210613220757 54 291 5.0 7.0 0.00 0.00 0.00 74 1024.1
20210613220257 54 283 5.0 8.0 0.00 0.00 0.00 74 1024.1
20210613215757 54 277 5.0 7.0 0.00 0.00 0.00 74 1024.1
20210613215257 54 272 6.0 8.0 0.00 0.00 0.00 73 1024.2
20210613214758 54 276 3.0 8.0 0.00 0.00 0.00 72 1024.1
20210613214257 55 274 6.0 8.0 0.00 0.00 0.00 71 1024.1
20210613213757 55 282 5.0 8.0 0.00 0.00 0.00 70 1024.1
20210613213259 55 293 5.0 10.0 0.00 0.00 0.00 69 1024.1
20210613212758 56 292 7.0 10.0 0.00 0.00 0.00 68 1024.1
20210613212258 56 282 6.0 10.0 0.00 0.00 0.00 68 1024.0
20210613211758 56 300 7.0 13.0 0.00 0.00 0.00 67 1024.1
20210613211257 56 283 6.0 12.0 0.00 0.00 0.00 67 1024.1
20210613210759 56 294 6.0 12.0 0.00 0.00 0.00 67 1024.2
20210613210258 56 288 5.0 14.0 0.00 0.00 0.00 67 1024.1
20210613205759 57 294 5.0 12.0 0.00 0.00 0.00 66 1024.1
20210613205258 56 289 5.0 10.0 0.00 0.00 0.00 66 1024.1
20210613204758 57 309 4.0 9.0 0.00 0.00 0.00 66 1024.1
20210613204258 57 288 3.0 8.0 0.00 0.01 0.00 66 1024.1
20210613203759 57 280 5.0 9.0 0.00 0.01 0.00 65 1024.1
20210613203258 57 287 6.0 10.0 0.00 0.01 0.00 64 1024.2
20210613202758 57 275 7.0 9.0 0.00 0.01 0.00 64 1024.2
20210613202258 57 272 6.0 9.0 0.00 0.01 0.00 63 1024.2
20210613201758 57 291 5.0 9.0 0.00 0.01 0.00 62 1024.1
20210613201258 57 285 5.0 9.0 0.00 0.01 0.00 62 1024.1
20210613200758 57 276 6.0 12.0 0.00 0.02 0.00 62 1024.2
20210613200259 58 299 5.0 9.0 0.00 0.03 0.00 61 1024.1
20210613195759 58 298 5.0 12.0 0.00 0.05 0.00 60 1024.1
20210613195259 58 302 6.0 14.0 0.00 0.05 0.00 59 1023.9
20210613194759 58 300 9.0 13.0 0.00 0.05 0.00 58 1024.0
20210613194259 58 296 7.0 13.0 0.00 0.05 0.00 58 1023.9
20210613193759 58 301 7.0 15.0 0.00 0.05 0.00 58 1023.8
20210613193300 58 297 10.0 14.0 0.00 0.05 0.00 58 1023.9
20210613192758 58 296 7.0 12.0 0.00 0.05 0.00 58 1023.7
20210613192259 58 307 7.0 12.0 0.00 0.05 0.00 58 1023.7
20210613191758 58 297 7.0 16.0 0.00 0.05 0.00 58 1023.7
20210613191259 58 300 10.0 15.0 0.00 0.05 0.00 58 1023.7
20210613190758 58 302 9.0 12.0 0.00 0.05 0.00 59 1023.6
20210613190300 58 300 10.0 15.0 0.00 0.05 0.00 59 1023.6
20210613185800 58 289 6.0 10.0 0.00 0.05 0.00 59 1023.6
20210613185300 58 302 9.0 13.0 0.00 0.05 0.00 59 1023.5
20210613184759 58 296 7.0 12.0 0.00 0.05 0.00 59 1023.5
20210613184300 58 302 9.0 16.0 0.00 0.05 0.00 58 1023.4
20210613183759 59 303 12.0 16.0 0.00 0.05 0.00 58 1023.4
20210613183300 59 310 10.0 14.0 0.00 0.05 0.00 58 1023.5
20210613182759 59 300 10.0 16.0 0.00 0.05 0.00 58 1023.4
20210613182259 59 306 7.0 12.0 0.00 0.05 0.00 58 1023.4
20210613181759 59 302 8.0 14.0 0.00 0.05 0.00 58 1023.4
20210613181300 59 303 9.0 13.0 0.00 0.05 0.00 58 1023.4
20210613180800 59 305 7.0 12.0 0.00 0.05 0.00 57 1023.5
20210613180300 59 306 8.0 12.0 0.00 0.05 0.00 57 1023.4
20210613175800 59 293 12.0 17.0 0.00 0.05 0.00 57 1023.3
20210613175259 59 311 9.0 15.0 0.00 0.05 0.00 57 1023.3
20210613174800 59 291 8.0 12.0 0.00 0.05 0.00 58 1023.3
20210613174300 59 306 9.0 13.0 0.00 0.05 0.00 59 1023.3
20210613173759 59 305 9.0 12.0 0.00 0.05 0.00 59 1023.2
20210613173300 59 294 7.0 13.0 0.00 0.05 0.00 59 1023.3
20210613172800 59 285 10.0 13.0 0.00 0.06 0.00 58 1023.2
20210613172301 59 299 10.0 15.0 0.00 0.07 0.00 59 1023.1
20210613171801 59 303 10.0 13.0 0.00 0.07 0.00 59 1023.1
20210613171300 59 306 10.0 16.0 0.00 0.07 0.00 59 1023.1
20210613170800 59 304 8.0 17.0 0.00 0.07 0.00 60 1023.0
20210613170301 59 292 9.0 16.0 0.00 0.07 0.00 61 1022.9
20210613165800 59 295 7.0 12.0 0.00 0.07 0.00 61 1022.9
20210613165300 59 298 8.0 15.0 0.00 0.07 0.00 61 1022.9
20210613164801 59 293 8.0 18.0 0.00 0.07 0.00 61 1022.9
20210613164302 59 274 12.0 21.0 0.00 0.07 0.00 60 1022.8
20210613163801 60 276 6.0 13.0 0.00 0.07 0.00 61 1022.8
20210613163301 60 290 9.0 16.0 0.00 0.07 0.00 60 1022.8
20210613162800 60 285 12.0 17.0 0.00 0.07 0.00 60 1022.7
20210613162305 60 278 10.0 17.0 0.00 0.07 0.00 59 1022.7
20210613161801 60 281 12.0 17.0 0.00 0.07 0.00 59 1022.8
20210613161302 60 281 11.0 20.0 0.00 0.07 0.00 60 1022.6
20210613160801 60 280 11.0 20.0 0.00 0.07 0.00 59 1022.6
20210613160301 60 276 12.0 17.0 0.00 0.07 0.00 58 1022.5
20210613155801 60 298 13.0 23.0 0.00 0.07 0.00 58 1022.5
20210613155301 60 287 11.0 18.0 0.00 0.07 0.00 59 1022.5
20210613154801 60 282 11.0 25.0 0.00 0.07 0.00 59 1022.5
20210613154301 60 281 12.0 20.0 0.00 0.07 0.00 59 1022.5
20210613153803 61 290 13.0 20.0 0.00 0.07 0.00 58 1022.5
20210613153302 61 289 12.0 20.0 0.00 0.07 0.00 59 1022.5
20210613152801 61 308 10.0 20.0 0.00 0.07 0.00 58 1022.4
20210613152304 61 294 10.0 18.0 0.00 0.07 0.00 58 1022.3